Ash, North Carolina
Current Conditions -  °F | °C
As of 5:53 AM on Monday 22 Dec 2014 (Local Time) from KCRE Reporting Station
Haze Haze  
Wind Chill: 41°   Ceiling: 300
Heat Index: 45°   Visibility: 2.5mi
Dew Point: 43°   Wind: 7mph
Humidity: 93%   Direction: 10°N
Pressure: 30.03"   Gusts: NA
Location:  34.04°N, 78.52°W
Report Text: KCRE 221053Z AUTO 01006KT 2 1/2SM BR OVC003 07/06 A3003 RMK AO1 RAB0954E05 SLP171 P0000 T00720061
Loading
Personal Weather Stations






























Interactive Weather Map New forecast layout! Learn more

10-Day Weather Forecast

Advertisements
Track Severe Weather on mobile